createdAt,value
2022-08-20T00:02:08.159Z,24.01
2022-08-20T00:04:35.739Z,24.08
2022-08-20T00:07:02.578Z,24.08
2022-08-20T00:09:29.902Z,24.12
2022-08-20T00:11:56.724Z,24.17
2022-08-20T00:14:23.647Z,24.17
2022-08-20T00:16:50.278Z,24.09
2022-08-20T00:19:18.320Z,24.07
2022-08-20T00:21:44.974Z,24.05
2022-08-20T00:24:13.560Z,24.03
2022-08-20T00:26:51.915Z,24.05
2022-08-20T00:29:20.226Z,24.09
2022-08-20T00:31:47.182Z,24.12
2022-08-20T00:34:14.337Z,24.09
2022-08-20T00:36:41.095Z,24.05
2022-08-20T00:39:07.704Z,24.01
2022-08-20T00:41:34.349Z,23.97
2022-08-20T00:44:01.580Z,23.97
2022-08-20T00:46:31.768Z,23.99
2022-08-20T00:49:02.487Z,23.99
2022-08-20T00:52:02.179Z,23.99
2022-08-20T00:54:34.576Z,24.00
2022-08-20T00:57:10.857Z,23.99
2022-08-20T00:59:40.094Z,24.02
2022-08-20T01:02:10.638Z,24.04
2022-08-20T01:04:37.771Z,24.01
2022-08-20T01:07:06.026Z,24.00
2022-08-20T01:09:57.896Z,23.96
2022-08-20T01:12:23.636Z,24.00
2022-08-20T01:14:50.375Z,23.98
2022-08-20T01:17:20.874Z,23.98
2022-08-20T01:19:55.986Z,23.98
2022-08-20T01:22:53.092Z,23.99
2022-08-20T01:25:25.853Z,23.99
2022-08-20T01:27:55.534Z,23.89
2022-08-20T01:30:24.203Z,23.88
2022-08-20T01:32:51.053Z,23.88
2022-08-20T01:35:22.198Z,23.86
2022-08-20T01:37:48.942Z,23.83
2022-08-20T01:40:17.932Z,23.88
2022-08-20T01:42:52.786Z,23.89
2022-08-20T01:45:27.995Z,23.88
2022-08-20T01:47:57.009Z,23.86
2022-08-20T01:50:26.700Z,23.85
2022-08-20T01:53:23.350Z,23.83
2022-08-20T01:55:50.025Z,23.79
2022-08-20T01:58:16.756Z,23.83
2022-08-20T02:00:43.440Z,23.80
2022-08-20T02:03:10.072Z,23.79
2022-08-20T02:05:36.780Z,23.84
2022-08-20T02:08:04.596Z,23.90
2022-08-20T02:10:31.945Z,23.92
2022-08-20T02:12:59.842Z,23.96
2022-08-20T02:15:35.004Z,24.02
2022-08-20T02:18:10.526Z,24.01
2022-08-20T02:20:37.634Z,24.01
2022-08-20T02:23:05.036Z,23.96
2022-08-20T02:25:33.558Z,24.02
2022-08-20T02:28:02.808Z,24.01
2022-08-20T02:30:33.855Z,24.05
2022-08-20T02:33:02.358Z,23.94
2022-08-20T02:35:30.081Z,23.90
2022-08-20T02:37:57.077Z,23.87
2022-08-20T02:40:27.068Z,23.91
2022-08-20T02:42:58.547Z,23.93
2022-08-20T02:45:25.193Z,23.96
2022-08-20T02:47:57.081Z,23.98
2022-08-20T02:50:25.485Z,24.00
2022-08-20T02:52:52.437Z,24.01
2022-08-20T02:55:27.469Z,24.04
2022-08-20T02:58:00.035Z,24.04
2022-08-20T03:00:31.078Z,24.00
2022-08-20T03:03:05.292Z,23.93
2022-08-20T03:05:31.917Z,23.96
2022-08-20T03:07:58.618Z,23.92
2022-08-20T03:10:27.994Z,23.92
2022-08-20T03:12:54.857Z,23.92
2022-08-20T03:15:21.551Z,23.89
2022-08-20T03:17:48.227Z,23.94
2022-08-20T03:20:15.324Z,23.91
2022-08-20T03:22:41.994Z,23.92
2022-08-20T03:25:09.277Z,23.93
2022-08-20T03:27:36.418Z,23.88
2022-08-20T03:30:05.958Z,23.82
2022-08-20T03:32:32.626Z,23.78
2022-08-20T03:34:59.249Z,23.75
2022-08-20T03:37:30.186Z,23.75
2022-08-20T03:39:57.003Z,23.80
2022-08-20T03:42:23.605Z,23.80
2022-08-20T03:44:58.974Z,23.78
2022-08-20T03:47:26.702Z,23.72
2022-08-20T03:49:58.555Z,23.65
2022-08-20T03:52:25.458Z,23.68
2022-08-20T03:54:52.070Z,23.70
2022-08-20T03:57:18.739Z,23.69
2022-08-20T03:59:45.363Z,23.66
2022-08-20T04:02:12.567Z,23.69
2022-08-20T04:04:42.194Z,23.63
2022-08-20T04:07:25.776Z,23.64
2022-08-20T04:09:53.765Z,23.61
2022-08-20T04:12:20.819Z,23.60
2022-08-20T04:14:47.692Z,23.63
2022-08-20T04:17:14.644Z,23.62
2022-08-20T04:19:41.640Z,23.62
2022-08-20T04:22:08.244Z,23.58
2022-08-20T04:24:35.486Z,23.59
2022-08-20T04:27:05.469Z,23.60
2022-08-20T04:29:35.379Z,23.62
2022-08-20T04:32:06.663Z,23.61
2022-08-20T04:34:33.608Z,23.63
2022-08-20T04:37:00.205Z,23.61
2022-08-20T04:39:26.885Z,23.63
2022-08-20T04:41:53.493Z,23.65
2022-08-20T04:44:21.788Z,23.66
2022-08-20T04:46:48.605Z,23.68
2022-08-20T04:49:15.529Z,23.66
2022-08-20T04:51:42.165Z,23.69
2022-08-20T04:54:09.286Z,23.73
2022-08-20T04:56:39.857Z,23.69
2022-08-20T04:59:07.509Z,23.64
2022-08-20T05:01:34.955Z,23.61
2022-08-20T05:04:01.748Z,23.56
2022-08-20T05:06:31.638Z,23.62
2022-08-20T05:08:59.878Z,23.62
2022-08-20T05:11:35.407Z,23.61
2022-08-20T05:14:05.331Z,23.61
2022-08-20T05:16:37.771Z,23.59
2022-08-20T05:19:05.488Z,23.55
2022-08-20T05:21:32.105Z,23.57
2022-08-20T05:23:58.745Z,23.58
2022-08-20T05:26:26.393Z,23.61
2022-08-20T05:28:58.162Z,23.62
2022-08-20T05:31:32.693Z,23.62
2022-08-20T05:34:12.269Z,23.60
2022-08-20T05:36:40.323Z,23.60
2022-08-20T05:39:07.375Z,23.58
2022-08-20T05:41:34.018Z,23.57
2022-08-20T05:44:01.379Z,23.55
2022-08-20T05:46:29.332Z,23.61
2022-08-20T05:48:56.225Z,23.64
2022-08-20T05:51:27.018Z,23.68
2022-08-20T05:53:53.631Z,23.75
2022-08-20T05:56:20.303Z,23.74
2022-08-20T05:58:53.354Z,23.72
2022-08-20T06:01:20.058Z,23.75
2022-08-20T06:04:15.918Z,23.71
2022-08-20T06:06:44.873Z,23.66
2022-08-20T06:09:16.733Z,23.63
2022-08-20T06:11:59.685Z,23.59
2022-08-20T06:14:26.668Z,23.61
2022-08-20T06:16:57.868Z,23.56
2022-08-20T06:19:27.002Z,23.63
2022-08-20T06:21:53.997Z,23.62
2022-08-20T06:24:21.343Z,23.64
2022-08-20T06:26:48.194Z,23.64
2022-08-20T06:29:15.974Z,23.70
2022-08-20T06:31:42.640Z,23.74
2022-08-20T06:34:09.289Z,23.76
2022-08-20T06:36:35.914Z,23.70
2022-08-20T06:39:02.532Z,23.68
2022-08-20T06:41:36.312Z,23.66
2022-08-20T06:44:04.547Z,23.65
2022-08-20T06:46:32.253Z,23.66
2022-08-20T06:48:59.245Z,23.63
2022-08-20T06:51:25.911Z,23.62
2022-08-20T06:53:52.520Z,23.57
2022-08-20T06:56:19.143Z,23.58
2022-08-20T06:58:45.753Z,23.60
2022-08-20T07:01:13.683Z,23.55
2022-08-20T07:03:42.295Z,23.50
2022-08-20T07:06:21.044Z,23.55
2022-08-20T07:08:47.685Z,23.64
2022-08-20T07:11:14.281Z,23.65
2022-08-20T07:13:41.506Z,23.58
2022-08-20T07:16:08.137Z,23.54
2022-08-20T07:18:34.846Z,23.54
2022-08-20T07:21:01.497Z,23.57
2022-08-20T07:23:30.206Z,23.54
2022-08-20T07:25:56.958Z,23.52
2022-08-20T07:28:24.921Z,23.53
2022-08-20T07:31:13.715Z,23.51
2022-08-20T07:33:44.439Z,23.52
2022-08-20T07:36:12.294Z,23.55
2022-08-20T07:38:39.088Z,23.59
2022-08-20T07:41:13.550Z,23.55
2022-08-20T07:43:40.976Z,23.63
2022-08-20T07:46:09.046Z,23.64
2022-08-20T07:48:39.461Z,23.65
2022-08-20T07:51:07.002Z,23.66
2022-08-20T07:53:36.158Z,23.62
2022-08-20T07:56:06.046Z,23.60
2022-08-20T07:58:35.813Z,23.60
2022-08-20T08:01:03.190Z,23.59
2022-08-20T08:03:40.459Z,23.57
2022-08-20T08:06:29.408Z,23.51
2022-08-20T08:09:13.081Z,23.50
2022-08-20T08:11:46.987Z,23.47
2022-08-20T08:14:14.633Z,23.50
2022-08-20T08:16:45.554Z,23.54
2022-08-20T08:19:14.725Z,23.51
2022-08-20T08:21:41.787Z,23.52
2022-08-20T08:24:08.421Z,23.54
2022-08-20T08:26:35.011Z,23.57
2022-08-20T08:29:02.645Z,23.53
2022-08-20T08:31:29.432Z,23.52
2022-08-20T08:33:56.168Z,23.54
2022-08-20T08:36:22.790Z,23.50
2022-08-20T08:38:49.462Z,23.51
2022-08-20T08:41:22.239Z,23.48
2022-08-20T08:43:50.705Z,23.46
2022-08-20T08:46:22.591Z,23.47
2022-08-20T08:48:53.423Z,23.47
2022-08-20T08:51:40.254Z,23.45
2022-08-20T08:54:08.038Z,23.43
2022-08-20T08:56:35.879Z,23.44
2022-08-20T08:59:08.635Z,23.48
2022-08-20T09:01:55.615Z,23.46
2022-08-20T09:04:30.418Z,23.45
2022-08-20T09:06:57.482Z,23.45
2022-08-20T09:09:37.119Z,23.42
2022-08-20T09:12:09.884Z,23.39
2022-08-20T09:14:36.964Z,23.43
2022-08-20T09:17:04.174Z,23.44
2022-08-20T09:19:31.196Z,23.44
2022-08-20T09:21:57.998Z,23.46
2022-08-20T09:24:24.875Z,23.41
2022-08-20T09:26:51.513Z,23.45
2022-08-20T09:29:18.262Z,23.44
2022-08-20T09:31:45.208Z,23.46
2022-08-20T09:34:13.499Z,23.44
2022-08-20T09:36:40.162Z,23.45
2022-08-20T09:39:07.102Z,23.39
2022-08-20T09:41:34.566Z,23.36
2022-08-20T09:44:01.871Z,23.36
2022-08-20T09:46:28.478Z,23.35
2022-08-20T09:48:55.450Z,23.35
2022-08-20T09:51:22.551Z,23.39
2022-08-20T09:53:49.405Z,23.38
2022-08-20T09:56:17.082Z,23.37
2022-08-20T09:58:52.928Z,23.40
2022-08-20T10:01:21.400Z,23.48
2022-08-20T10:03:49.153Z,23.46
2022-08-20T10:06:17.887Z,23.46
2022-08-20T10:08:44.739Z,23.48
2022-08-20T10:11:11.526Z,23.50
2022-08-20T10:13:38.363Z,23.53
2022-08-20T10:16:05.242Z,23.52
2022-08-20T10:18:31.942Z,23.57
2022-08-20T10:20:59.774Z,23.56
2022-08-20T10:23:26.441Z,23.60
2022-08-20T10:25:53.048Z,23.62
2022-08-20T10:28:19.647Z,23.65
2022-08-20T10:30:46.977Z,23.62
2022-08-20T10:33:13.592Z,23.58
2022-08-20T10:35:40.250Z,23.57
2022-08-20T10:38:06.886Z,23.60
2022-08-20T10:40:33.545Z,23.61
2022-08-20T10:43:00.212Z,23.60
2022-08-20T10:45:26.796Z,23.62
2022-08-20T10:47:53.403Z,23.61
2022-08-20T10:50:20.153Z,23.57
2022-08-20T10:52:47.147Z,23.58
2022-08-20T10:55:14.300Z,23.56
2022-08-20T10:57:43.588Z,23.52
2022-08-20T11:00:13.806Z,23.57
2022-08-20T11:02:40.435Z,23.57
2022-08-20T11:05:08.082Z,23.54
2022-08-20T11:07:49.825Z,23.52
2022-08-20T11:10:24.540Z,23.56
2022-08-20T11:12:51.139Z,23.59
2022-08-20T11:15:17.924Z,23.59
2022-08-20T11:17:45.859Z,23.55
2022-08-20T11:20:13.859Z,23.55
2022-08-20T11:22:40.493Z,23.54
2022-08-20T11:25:07.561Z,23.57
2022-08-20T11:27:39.088Z,23.59
2022-08-20T11:30:16.320Z,23.59
2022-08-20T11:32:42.990Z,23.61
2022-08-20T11:35:38.852Z,23.63
2022-08-20T11:37:58.485Z,23.62
2022-08-20T11:40:26.392Z,23.66
2022-08-20T11:43:13.564Z,23.64
2022-08-20T11:45:40.279Z,23.62
2022-08-20T11:48:06.891Z,23.67
2022-08-20T11:50:33.510Z,23.67
2022-08-20T11:53:01.655Z,23.69
2022-08-20T11:55:30.652Z,23.67
2022-08-20T11:58:00.029Z,23.68
2022-08-20T12:00:32.106Z,23.66
2022-08-20T12:03:04.951Z,23.65
2022-08-20T12:05:32.030Z,23.64
2022-08-20T12:08:00.946Z,23.65
2022-08-20T12:10:28.682Z,23.63
2022-08-20T12:12:56.309Z,23.63
2022-08-20T12:15:23.959Z,23.61
2022-08-20T12:17:50.762Z,23.60
2022-08-20T12:20:17.622Z,23.61
2022-08-20T12:22:44.773Z,23.64
2022-08-20T12:25:12.082Z,23.66
2022-08-20T12:27:39.650Z,23.73
2022-08-20T12:30:10.184Z,23.77
2022-08-20T12:32:37.197Z,23.79
2022-08-20T12:35:05.508Z,23.72
2022-08-20T12:37:32.655Z,23.72
2022-08-20T12:40:00.874Z,23.73
2022-08-20T12:42:30.346Z,23.72
2022-08-20T12:44:57.845Z,23.69
2022-08-20T12:47:32.695Z,23.67
2022-08-20T12:50:10.119Z,23.70
2022-08-20T12:52:37.185Z,23.69
2022-08-20T12:55:05.222Z,23.70
2022-08-20T12:57:46.367Z,23.68
2022-08-20T13:00:14.569Z,23.68
2022-08-20T13:02:41.358Z,23.69
2022-08-20T13:05:09.377Z,23.69
2022-08-20T13:07:36.889Z,23.71
2022-08-20T13:10:05.403Z,23.72
2022-08-20T13:12:32.123Z,23.72
2022-08-20T13:14:58.764Z,23.68
2022-08-20T13:17:33.622Z,23.69
2022-08-20T13:20:10.268Z,23.70
2022-08-20T13:22:36.922Z,23.67
2022-08-20T13:25:04.931Z,23.65
2022-08-20T13:27:31.560Z,23.67
2022-08-20T13:29:59.092Z,23.65
2022-08-20T13:32:26.177Z,23.65
2022-08-20T13:34:52.917Z,23.63
2022-08-20T13:37:25.570Z,23.65
2022-08-20T13:39:53.363Z,23.61
2022-08-20T13:42:20.377Z,23.62
2022-08-20T13:44:47.158Z,23.58
2022-08-20T13:47:30.213Z,23.59
2022-08-20T13:50:13.258Z,23.60
2022-08-20T13:52:42.543Z,23.54
2022-08-20T13:55:11.639Z,23.51
2022-08-20T13:57:38.471Z,23.48
2022-08-20T14:00:09.929Z,23.51
2022-08-20T14:02:37.071Z,23.51
2022-08-20T14:05:04.318Z,23.49
2022-08-20T14:07:32.807Z,23.49
2022-08-20T14:10:09.811Z,23.49
2022-08-20T14:12:36.424Z,23.42
2022-08-20T14:15:03.497Z,23.38
2022-08-20T14:17:32.366Z,23.38
2022-08-20T14:20:09.392Z,23.38
2022-08-20T14:22:37.684Z,23.36
2022-08-20T14:25:06.527Z,23.34
2022-08-20T14:27:34.035Z,23.39
2022-08-20T14:30:01.732Z,23.36
2022-08-20T14:32:28.740Z,23.36
2022-08-20T14:34:59.039Z,23.32
2022-08-20T14:37:31.073Z,23.33
2022-08-20T14:39:59.634Z,23.36
2022-08-20T14:42:28.162Z,23.31
2022-08-20T14:44:59.145Z,23.31
2022-08-20T14:47:34.846Z,23.27
2022-08-20T14:50:05.253Z,23.22
2022-08-20T14:52:36.345Z,23.22
2022-08-20T14:55:08.797Z,23.19
2022-08-20T14:57:35.501Z,23.13
2022-08-20T15:00:02.442Z,23.12
2022-08-20T15:02:29.220Z,23.12
2022-08-20T15:04:56.015Z,23.15
2022-08-20T15:07:26.995Z,23.16
2022-08-20T15:09:54.430Z,23.12
2022-08-20T15:12:21.337Z,23.06
2022-08-20T15:14:49.107Z,23.01
2022-08-20T15:17:24.581Z,22.99
2022-08-20T15:19:51.653Z,23.03
2022-08-20T15:22:19.260Z,23.04
2022-08-20T15:24:47.136Z,23.08
2022-08-20T15:27:21.870Z,23.09
2022-08-20T15:29:49.403Z,23.08
2022-08-20T15:32:16.397Z,23.06
2022-08-20T15:34:43.349Z,23.06
2022-08-20T15:37:15.306Z,23.00
2022-08-20T15:39:42.992Z,23.02
2022-08-20T15:42:10.427Z,23.02
2022-08-20T15:44:37.477Z,23.00
2022-08-20T15:47:31.699Z,22.93
2022-08-20T15:50:09.295Z,22.94
2022-08-20T15:52:43.056Z,22.93
2022-08-20T15:55:13.174Z,22.94
2022-08-20T15:58:15.081Z,22.98
2022-08-20T16:00:52.691Z,23.01
2022-08-20T16:03:39.828Z,23.03
2022-08-20T16:06:18.831Z,23.00
2022-08-20T16:09:04.360Z,23.01
2022-08-20T16:11:53.447Z,22.99
2022-08-20T16:14:22.482Z,23.01
2022-08-20T16:16:57.917Z,23.02
2022-08-20T16:19:36.662Z,23.01
2022-08-20T16:22:04.568Z,22.99
2022-08-20T16:24:32.265Z,22.98
2022-08-20T16:27:20.612Z,23.01
2022-08-20T16:29:53.431Z,23.02
2022-08-20T16:32:42.008Z,23.03
2022-08-20T16:35:37.872Z,23.05
2022-08-20T16:38:20.797Z,22.98
2022-08-20T16:40:56.511Z,22.95
2022-08-20T16:43:29.880Z,22.90
2022-08-20T16:46:06.521Z,22.90
2022-08-20T16:48:39.341Z,22.89
2022-08-20T16:51:10.826Z,22.93
2022-08-20T16:53:37.629Z,22.93
2022-08-20T16:56:05.445Z,22.96
2022-08-20T16:58:32.103Z,22.89
2022-08-20T17:01:17.311Z,22.94
2022-08-20T17:03:50.564Z,22.93
2022-08-20T17:06:39.764Z,22.98
2022-08-20T17:09:13.376Z,23.00
2022-08-20T17:11:40.286Z,22.97
2022-08-20T17:14:18.205Z,22.94
2022-08-20T17:16:50.559Z,22.95
2022-08-20T17:19:28.084Z,22.98
2022-08-20T17:21:55.766Z,22.97
2022-08-20T17:24:26.008Z,22.96
2022-08-20T17:27:10.339Z,22.94
2022-08-20T17:29:49.514Z,22.96
2022-08-20T17:32:21.091Z,22.98
2022-08-20T17:34:51.704Z,22.96
2022-08-20T17:37:34.095Z,22.93
2022-08-20T17:40:11.817Z,22.88
2022-08-20T17:42:48.320Z,22.87
2022-08-20T17:45:23.790Z,22.88
2022-08-20T17:47:51.155Z,22.87
2022-08-20T17:50:24.506Z,22.88
2022-08-20T17:52:53.972Z,22.91
2022-08-20T17:55:21.306Z,22.89
2022-08-20T17:57:57.177Z,22.91
2022-08-20T18:00:27.973Z,22.87
2022-08-20T18:03:13.317Z,22.85
2022-08-20T18:05:40.041Z,22.83
2022-08-20T18:08:12.294Z,22.82
2022-08-20T18:10:44.917Z,22.83
2022-08-20T18:13:27.233Z,22.77
2022-08-20T18:15:57.242Z,22.75
2022-08-20T18:18:26.536Z,22.81
2022-08-20T18:21:21.679Z,22.81
2022-08-20T18:23:53.423Z,22.81
2022-08-20T18:26:31.872Z,22.79
2022-08-20T18:29:23.940Z,22.72
2022-08-20T18:31:56.652Z,22.73
2022-08-20T18:34:43.547Z,22.73
2022-08-20T18:37:14.124Z,22.74
2022-08-20T18:39:44.506Z,22.74
2022-08-20T18:42:27.117Z,22.75
2022-08-20T18:44:55.147Z,22.77
2022-08-20T18:47:32.680Z,22.74
2022-08-20T18:50:00.767Z,22.75
2022-08-20T18:52:30.606Z,22.72
2022-08-20T18:55:00.349Z,22.74
2022-08-20T18:57:41.416Z,22.72
2022-08-20T19:00:12.249Z,22.71
2022-08-20T19:03:07.217Z,22.70
2022-08-20T19:05:56.805Z,22.73
2022-08-20T19:08:35.954Z,22.73
2022-08-20T19:11:20.458Z,22.70
2022-08-20T19:14:11.475Z,22.71
2022-08-20T19:16:45.481Z,22.75
2022-08-20T19:19:23.624Z,22.77
2022-08-20T19:21:51.156Z,22.75
2022-08-20T19:24:24.844Z,22.74
2022-08-20T19:26:57.701Z,22.75
2022-08-20T19:29:35.966Z,22.73
2022-08-20T19:32:07.217Z,22.77
2022-08-20T19:34:35.030Z,22.83
2022-08-20T19:37:27.659Z,22.81
2022-08-20T19:39:52.283Z,22.77
2022-08-20T19:42:23.411Z,22.76
2022-08-20T19:45:08.468Z,22.75
2022-08-20T19:47:52.141Z,22.73
2022-08-20T19:50:22.957Z,22.72
2022-08-20T19:52:57.482Z,22.73
2022-08-20T19:55:29.996Z,22.68
2022-08-20T19:58:00.210Z,22.67
2022-08-20T20:00:29.596Z,22.68
2022-08-20T20:02:56.618Z,22.68
2022-08-20T20:05:23.454Z,22.70
2022-08-20T20:07:52.410Z,22.67
2022-08-20T20:10:32.695Z,22.65
2022-08-20T20:13:07.990Z,22.59
2022-08-20T20:15:34.974Z,22.62
2022-08-20T20:18:01.750Z,22.65
2022-08-20T20:20:31.175Z,22.63
2022-08-20T20:23:12.624Z,22.64
2022-08-20T20:25:45.115Z,22.65
2022-08-20T20:28:17.984Z,22.63
2022-08-20T20:30:45.131Z,22.62
2022-08-20T20:33:17.391Z,22.65
2022-08-20T20:35:45.508Z,22.65
2022-08-20T20:38:26.670Z,22.70
2022-08-20T20:40:56.484Z,22.68
2022-08-20T20:43:38.821Z,22.63
2022-08-20T20:46:16.014Z,22.60
2022-08-20T20:48:48.712Z,22.60
2022-08-20T20:51:17.949Z,22.59
2022-08-20T20:53:54.385Z,22.59
2022-08-20T20:56:42.129Z,22.61
2022-08-20T20:59:10.067Z,22.64
2022-08-20T21:01:48.413Z,22.66
2022-08-20T21:04:18.845Z,22.69
2022-08-20T21:06:45.938Z,22.64
2022-08-20T21:09:12.733Z,22.62
2022-08-20T21:11:39.395Z,22.60
2022-08-20T21:14:06.094Z,22.62
2022-08-20T21:16:32.724Z,22.71
2022-08-20T21:18:59.423Z,22.75
2022-08-20T21:21:26.030Z,22.75
2022-08-20T21:23:52.628Z,22.71
2022-08-20T21:26:19.266Z,22.68
2022-08-20T21:28:45.918Z,22.66
2022-08-20T21:31:12.597Z,22.62
2022-08-20T21:33:39.192Z,22.61
2022-08-20T21:36:06.453Z,22.56
2022-08-20T21:38:33.231Z,22.53
2022-08-20T21:40:59.908Z,22.51
2022-08-20T21:43:26.551Z,22.50
2022-08-20T21:45:53.807Z,22.50
2022-08-20T21:48:20.538Z,22.50
2022-08-20T21:50:47.201Z,22.48
2022-08-20T21:53:13.905Z,22.47
2022-08-20T21:55:40.955Z,22.51
2022-08-20T21:58:08.207Z,22.51
2022-08-20T22:00:51.691Z,22.48
2022-08-20T22:03:20.028Z,22.53
2022-08-20T22:05:47.310Z,22.58
2022-08-20T22:08:13.922Z,22.59
2022-08-20T22:10:40.537Z,22.58
2022-08-20T22:13:07.387Z,22.57
2022-08-20T22:15:34.361Z,22.55
2022-08-20T22:18:01.010Z,22.54
2022-08-20T22:20:27.889Z,22.55
2022-08-20T22:22:54.606Z,22.52
2022-08-20T22:25:21.252Z,22.53
2022-08-20T22:27:47.897Z,22.56
2022-08-20T22:30:14.979Z,22.48
2022-08-20T22:32:51.867Z,22.49
2022-08-20T22:35:19.577Z,22.50
2022-08-20T22:37:46.297Z,22.48
2022-08-20T22:40:13.241Z,22.50
2022-08-20T22:42:39.871Z,22.50
2022-08-20T22:45:11.544Z,22.48
2022-08-20T22:47:42.002Z,22.50
2022-08-20T22:50:08.980Z,22.52
2022-08-20T22:52:39.924Z,22.51
2022-08-20T22:55:07.340Z,22.49
2022-08-20T22:57:36.663Z,22.51
2022-08-20T23:00:08.596Z,22.55
2022-08-20T23:02:35.244Z,22.60
2022-08-20T23:05:02.263Z,22.61
2022-08-20T23:07:28.897Z,22.57
2022-08-20T23:09:55.505Z,22.53
2022-08-20T23:12:22.241Z,22.52
2022-08-20T23:14:48.919Z,22.50
2022-08-20T23:17:20.016Z,22.49
2022-08-20T23:19:48.229Z,22.47
2022-08-20T23:22:15.122Z,22.50
2022-08-20T23:24:41.842Z,22.49
2022-08-20T23:27:12.229Z,22.48
2022-08-20T23:29:38.963Z,22.46
2022-08-20T23:32:05.723Z,22.44
2022-08-20T23:34:32.527Z,22.49
2022-08-20T23:37:00.075Z,22.48
2022-08-20T23:39:28.516Z,22.47
2022-08-20T23:41:55.852Z,22.49
2022-08-20T23:44:25.075Z,22.49
2022-08-20T23:46:56.623Z,22.51
2022-08-20T23:49:23.225Z,22.52
2022-08-20T23:51:49.881Z,22.50
2022-08-20T23:54:16.586Z,22.51
2022-08-20T23:56:43.199Z,22.52
2022-08-20T23:59:09.835Z,22.56
